SNOW

Not for real navigation. The accuracy of this data is not assured See disclaimer for more information



ICAO NAME COUNTRY WIND Kt GUST Kt VIS m TEMP/DEW C BARO METAR
KC07 8 20 400 6/6 30.57 KC07 181212Z AUTO 29008G20KT 0.25SM -SN OVC002 06/06 A3057 RMK AO2 LTG NOOP NE S AND SW
SAZS Bariloche Aerodrome Argentina 17 0 7000 1/-2 30.21 SAZS 181207Z 29017KT 7000 SHSN SCT015 SCT023 BKN050 01/M02 Q1023 TEMPO 8000 RASN BKN020 OVC050
LIEB Capo Bellavista Italy 2 0 9999 30/21 29.97 LIEB 181209Z 15002KT 9999 SCT026TCU 30/21 Q1015 RESNRAGR RMK BKN SCT200 QUK 2 QUL 0 VIS MAR 25 KM MO
SAWH Ushuaia Aerodrome Argentina 15 0 9999 0/0 29.59 SAWH 181200Z 23015KT 9999 -RASN SCT030 BKN050 00/M00 Q1002
SCCY Coyhaique Chile 3 0 9999 0/-1 30.09 SCCY 181200Z 04003KT 330V070 9999 FEW015 SCT030 M00/M01 Q1019 RESN

Show more